Time;durP1;ratioP1;P1;durP2;ratioP2;P2;SDS_P1;SDS_P2;PMS_P1;PMS_P2;Temp;Humidity;BMP_temperature;BMP_pressure;BME280_temperature;BME280_humidity;BME280_pressure;Samples;Min_cycle;Max_cycle;Signal;HPM_P1;HPM_P2
2023/05/22 00:02:56;;;;;;;13.13;11.82;;;;;;;15.42;91.28;100338.97;5032138;28;20566;-68
2023/05/22 00:05:59;;;;;;;15.15;12.98;;;;;;;15.38;91.05;100341.94;5032185;28;20052;-69
2023/05/22 00:09:02;;;;;;;13.77;12.40;;;;;;;15.31;91.26;100345.03;5032301;28;20041;-69
2023/05/22 00:12:06;;;;;;;17.88;12.60;;;;;;;15.34;91.34;100346.59;5032400;28;20505;-68
2023/05/22 00:15:10;;;;;;;14.90;13.48;;;;;;;15.31;91.06;100345.03;5032132;28;20088;-69
2023/05/22 00:18:13;;;;;;;13.98;12.75;;;;;;;15.23;91.37;100343.94;5032008;28;20132;-68
2023/05/22 00:21:17;;;;;;;14.55;13.25;;;;;;;15.18;91.58;100346.06;5032158;28;20132;-69
2023/05/22 00:24:20;;;;;;;15.80;13.88;;;;;;;15.16;91.47;100337.47;5032021;28;20520;-68
2023/05/22 00:27:23;;;;;;;13.75;12.30;;;;;;;15.18;91.44;100341.66;5032044;28;20064;-69
2023/05/22 00:30:27;;;;;;;15.77;13.43;;;;;;;15.18;91.06;100335.53;5032123;28;20405;-69
2023/05/22 00:33:30;;;;;;;14.45;12.50;;;;;;;15.15;91.23;100335.78;5032055;28;20071;-69
2023/05/22 00:36:33;;;;;;;13.85;12.55;;;;;;;15.08;91.20;100330.97;5031912;28;20124;-69
2023/05/22 00:39:37;;;;;;;15.02;12.68;;;;;;;15.06;91.64;100329.38;5031636;28;20098;-69
2023/05/22 00:42:44;;;;;;;13.20;11.88;;;;;;;15.16;91.02;100327.78;5019653;28;20048;-68
2023/05/22 00:45:47;;;;;;;12.98;11.55;;;;;;;15.16;90.77;100329.56;5019721;28;20068;-68
2023/05/22 00:48:53;;;;;;;13.60;12.35;;;;;;;15.11;90.77;100333.38;5032075;28;20562;-68
2023/05/22 00:51:56;;;;;;;12.60;11.40;;;;;;;15.03;91.22;100327.84;5031916;28;20060;-69
2023/05/22 00:55:02;;;;;;;15.27;12.68;;;;;;;14.95;91.52;100324.91;5033015;28;20044;-68
2023/05/22 00:58:10;;;;;;;15.98;12.38;;;;;;;14.93;91.64;100325.97;5035417;28;20095;-69
2023/05/22 01:01:17;;;;;;;14.57;12.98;;;;;;;14.94;91.20;100327.69;4981966;28;1184583;-68
2023/05/22 01:04:31;;;;;;;13.05;11.85;;;;;;;14.94;91.44;100328.53;5036637;28;20133;-70
2023/05/22 01:07:37;;;;;;;13.68;12.40;;;;;;;14.91;91.35;100331.38;5024556;28;20137;-68
2023/05/22 01:10:41;;;;;;;16.35;12.90;;;;;;;14.91;91.44;100339.28;5024089;28;20048;-68
2023/05/22 01:13:59;;;;;;;14.73;13.23;;;;;;;14.83;91.64;100336.34;5036604;28;20077;-69
2023/05/22 01:17:22;;;;;;;14.38;13.07;;;;;;;14.80;92.12;100336.56;5036131;28;20107;-69
2023/05/22 01:20:41;;;;;;;15.05;12.82;;;;;;;14.78;92.10;100338.50;5036160;28;20405;-68
2023/05/22 01:24:02;;;;;;;16.77;12.93;;;;;;;14.75;92.23;100333.44;5036364;28;20100;-68
2023/05/22 01:27:24;;;;;;;14.43;12.95;;;;;;;14.69;92.75;100333.88;5035993;28;20564;-68
2023/05/22 01:31:00;;;;;;;15.15;13.48;;;;;;;14.80;92.51;100331.31;5023722;28;20051;-68
2023/05/22 01:34:06;;;;;;;15.25;13.75;;;;;;;14.77;92.14;100326.25;5023582;28;20621;-68
2023/05/22 01:37:10;;;;;;;19.38;13.73;;;;;;;14.72;92.28;100333.66;5023698;28;20046;-68
2023/05/22 01:40:13;;;;;;;13.80;12.50;;;;;;;14.74;91.98;100329.13;5035840;28;20048;-68
2023/05/22 01:43:16;;;;;;;14.02;12.73;;;;;;;14.73;91.97;100335.34;5023532;28;20099;-68
2023/05/22 01:46:25;;;;;;;15.52;12.63;;;;;;;14.61;92.53;100330.03;5023236;28;20052;-68
2023/05/22 01:49:28;;;;;;;13.82;12.45;;;;;;;14.65;92.54;100331.47;5035479;28;20053;-68
2023/05/22 01:52:51;;;;;;;14.15;12.80;;;;;;;14.62;92.19;100333.50;5035694;28;20064;-68
2023/05/22 01:56:04;;;;;;;14.60;12.48;;;;;;;14.60;92.25;100330.97;5023178;28;20048;-68
2023/05/22 02:00:02;;;;;;;15.07;11.73;;;;;;;14.60;92.21;100330.97;5011716;28;20041;-68
2023/05/22 02:03:10;;;;;;;14.40;12.90;;;;;;;14.56;92.93;100336.56;5023267;28;20049;-68
2023/05/22 02:06:32;;;;;;;15.13;13.55;;;;;;;14.59;92.83;100336.34;5034881;28;20072;-68
2023/05/22 02:09:37;;;;;;;15.95;13.18;;;;;;;14.61;92.44;100334.44;5027547;28;20563;-69
2023/05/22 02:12:41;;;;;;;14.02;12.68;;;;;;;14.71;92.17;100331.97;5022913;28;20410;-68
2023/05/22 02:15:45;;;;;;;16.42;13.38;;;;;;;14.65;92.58;100333.28;5023061;28;20103;-68
2023/05/22 02:18:50;;;;;;;15.27;13.35;;;;;;;14.62;93.01;100334.34;5022778;28;20523;-68
2023/05/22 02:21:53;;;;;;;16.52;13.68;;;;;;;14.64;93.13;100337.72;5022653;28;20044;-68
2023/05/22 02:24:56;;;;;;;14.23;12.82;;;;;;;14.63;93.12;100330.75;5034901;28;20084;-68
2023/05/22 02:27:59;;;;;;;15.90;14.23;;;;;;;14.62;93.25;100329.06;5022748;28;20083;-68
2023/05/22 02:31:03;;;;;;;15.65;14.13;;;;;;;14.63;93.43;100330.75;5022594;28;20567;-68
2023/05/22 02:34:06;;;;;;;15.15;13.75;;;;;;;14.59;93.67;100331.94;5034792;28;20410;-68
2023/05/22 02:37:09;;;;;;;14.48;13.00;;;;;;;14.57;93.97;100330.34;5022429;28;20048;-68
2023/05/22 02:40:14;;;;;;;14.65;13.13;;;;;;;14.55;93.93;100319.94;5034629;28;20064;-68
2023/05/22 02:43:17;;;;;;;14.50;12.98;;;;;;;14.56;93.97;100318.16;5022299;28;20124;-68
2023/05/22 02:46:20;;;;;;;13.82;12.25;;;;;;;14.56;93.80;100324.25;5022346;28;20044;-68
2023/05/22 02:49:24;;;;;;;14.43;13.02;;;;;;;14.53;93.79;100318.38;5022055;28;20048;-68
2023/05/22 02:52:28;;;;;;;13.70;12.40;;;;;;;14.44;94.22;100322.47;5034205;28;20048;-68
2023/05/22 02:55:31;;;;;;;16.17;13.13;;;;;;;14.41;94.32;100314.78;5022121;28;20095;-68
2023/05/22 02:58:34;;;;;;;13.88;11.25;;;;;;;14.47;93.59;100324.88;5022002;28;20482;-68
2023/05/22 03:01:38;;;;;;;12.88;11.27;;;;;;;14.45;93.15;100318.88;5014361;28;20160;-68
2023/05/22 03:04:41;;;;;;;13.77;11.85;;;;;;;14.42;93.08;100324.34;5021972;28;20103;-68
2023/05/22 03:07:45;;;;;;;12.52;10.18;;;;;;;14.38;92.94;100330.78;5034126;28;20464;-68
2023/05/22 03:10:50;;;;;;;13.20;11.80;;;;;;;14.39;93.04;100319.34;5021688;28;20043;-68
2023/05/22 03:13:53;;;;;;;15.48;13.93;;;;;;;14.36;93.93;100320.38;5028514;28;20459;-68
2023/05/22 03:16:57;;;;;;;18.30;15.15;;;;;;;14.37;94.62;100322.06;5021255;28;20091;-68
2023/05/22 03:20:00;;;;;;;18.83;15.65;;;;;;;14.33;95.47;100325.88;5033866;28;20068;-68
2023/05/22 03:23:05;;;;;;;23.02;16.00;;;;;;;14.33;95.61;100319.78;5021652;28;20044;-68
2023/05/22 03:26:08;;;;;;;25.48;16.77;;;;;;;14.31;95.98;100319.03;5021440;28;20048;-68
2023/05/22 03:29:14;;;;;;;19.95;17.25;;;;;;;14.25;96.94;100324.72;5021563;28;20100;-68
2023/05/22 03:32:18;;;;;;;21.73;18.77;;;;;;;14.28;96.90;100324.50;5021343;28;20075;-68
2023/05/22 03:35:24;;;;;;;24.27;18.13;;;;;;;14.30;97.19;100327.88;5021333;28;20039;-74
2023/05/22 03:38:27;;;;;;;23.13;19.08;;;;;;;14.24;97.86;100330.94;5033547;28;20111;-70
2023/05/22 03:41:31;;;;;;;27.92;18.02;;;;;;;14.26;98.01;100336.91;5021285;28;20128;-69
2023/05/22 03:44:34;;;;;;;19.90;17.48;;;;;;;14.26;97.96;100334.28;5013315;28;20091;-70
2023/05/22 03:47:38;;;;;;;20.10;17.52;;;;;;;14.25;98.16;100329.97;5021570;28;20102;-70
2023/05/22 03:50:41;;;;;;;21.75;19.23;;;;;;;14.27;98.41;100333.34;5021279;28;20039;-69
2023/05/22 03:53:44;;;;;;;28.70;18.20;;;;;;;14.26;98.62;100332.50;5033216;28;20524;-70
2023/05/22 03:56:48;;;;;;;;;;;;;;;14.26;98.61;100332.50;5033601;28;20516;-70
2023/05/22 03:59:51;;;;;;;19.55;17.30;;;;;;;14.25;98.03;100329.97;5020690;28;19923;-69
2023/05/22 04:02:57;;;;;;;18.77;16.88;;;;;;;14.26;97.81;100329.84;5020882;28;20057;-70
2023/05/22 04:06:02;;;;;;;20.52;16.52;;;;;;;14.25;98.49;100332.63;5020734;28;20461;-69
2023/05/22 04:09:05;;;;;;;20.23;18.23;;;;;;;14.22;98.89;100330.19;5032830;28;20083;-70
2023/05/22 04:12:08;;;;;;;18.17;16.27;;;;;;;14.38;97.73;100330.78;5020829;28;20106;-71
2023/05/22 04:15:11;;;;;;;19.63;17.58;;;;;;;14.41;96.70;100331.41;5032815;28;20048;-71
2023/05/22 04:18:15;;;;;;;19.48;17.48;;;;;;;14.43;96.68;100323.41;5020703;28;20072;-71
2023/05/22 04:21:18;;;;;;;21.48;19.27;;;;;;;14.43;96.72;100336.56;5009491;28;20504;-73
2023/05/22 04:24:22;;;;;;;17.95;16.05;;;;;;;14.37;96.76;100335.22;5032765;28;20045;-71
2023/05/22 04:27:25;;;;;;;20.42;18.25;;;;;;;14.34;96.93;100334.59;5020623;28;20155;-72
2023/05/22 04:30:38;;;;;;;19.15;17.10;;;;;;;14.29;97.71;100334.91;5032605;28;20524;-72
2023/05/22 04:33:43;;;;;;;20.42;17.95;;;;;;;14.30;97.92;100335.78;5020515;28;20119;-72
2023/05/22 04:36:46;;;;;;;21.10;17.45;;;;;;;14.24;97.83;100336.19;5032760;28;20119;-72
2023/05/22 04:39:52;;;;;;;20.13;16.10;;;;;;;14.31;97.30;100340.06;5032500;28;20127;-70
2023/05/22 04:42:58;;;;;;;16.80;15.23;;;;;;;14.33;96.60;100338.19;5020417;28;20118;-71
2023/05/22 04:46:01;;;;;;;21.60;18.58;;;;;;;14.29;97.58;100342.78;5018912;28;20048;-71
2023/05/22 04:49:04;;;;;;;20.23;16.95;;;;;;;14.50;96.66;100350.97;5032460;28;20536;-71
2023/05/22 04:52:10;;;;;;;22.05;18.98;;;;;;;14.46;97.06;100354.78;5020516;28;20410;-70
2023/05/22 04:55:32;;;;;;;24.20;19.25;;;;;;;14.62;96.30;100355.38;5032609;28;20416;-70
2023/05/22 04:58:58;;;;;;;31.48;19.83;;;;;;;14.69;95.98;100355.78;5022521;28;20106;-70
2023/05/22 05:02:02;;;;;;;22.17;18.58;;;;;;;14.60;96.71;100356.44;5031229;28;20115;-71
2023/05/22 05:05:06;;;;;;;19.77;17.67;;;;;;;14.69;96.12;100365.47;5031293;28;20048;-71
2023/05/22 05:08:09;;;;;;;20.48;18.05;;;;;;;14.69;96.18;100370.75;5019406;28;20044;-71
2023/05/22 05:11:13;;;;;;;22.30;20.20;;;;;;;14.56;97.33;100376.88;5020055;28;20064;-73
2023/05/22 05:14:16;;;;;;;20.63;18.40;;;;;;;14.60;98.77;100365.16;5020256;28;20052;-74
2023/05/22 05:17:21;;;;;;;20.80;18.73;;;;;;;14.60;97.63;100367.81;5020113;28;20111;-74
2023/05/22 05:20:24;;;;;;;23.40;20.35;;;;;;;14.60;98.55;100365.16;5031563;28;20080;-76
2023/05/22 05:23:27;;;;;;;22.67;18.92;;;;;;;14.73;97.80;100361.66;5032185;28;20125;-78
2023/05/22 05:26:31;;;;;;;20.50;18.63;;;;;;;14.87;96.54;100366.78;5019599;28;20470;-77
2023/05/22 05:29:35;;;;;;;29.02;19.90;;;;;;;14.88;97.34;100368.44;5019832;28;20045;-76
2023/05/22 05:32:44;;;;;;;21.15;18.33;;;;;;;14.92;97.42;100369.91;5019626;28;20045;-76
2023/05/22 05:36:08;;;;;;;22.23;19.25;;;;;;;15.06;97.46;100367.13;5030632;28;20052;-74
2023/05/22 05:39:12;;;;;;;19.92;18.08;;;;;;;15.17;96.23;100362.84;5019596;28;20045;-75
2023/05/22 05:42:16;;;;;;;18.60;16.90;;;;;;;15.21;96.25;100366.91;5022955;28;20048;-75
2023/05/22 05:45:21;;;;;;;19.05;17.20;;;;;;;15.22;97.02;100368.59;5023198;28;20512;-75
2023/05/22 05:48:24;;;;;;;18.35;16.40;;;;;;;15.27;96.50;100371.75;5023623;28;20480;-75
2023/05/22 05:51:28;;;;;;;18.02;16.42;;;;;;;15.32;97.20;100369.63;5023228;28;20124;-74
2023/05/22 05:55:22;;;;;;;19.08;17.23;;;;;;;15.35;96.76;100377.28;5022849;28;20099;-84
2023/05/22 05:58:25;;;;;;;18.95;17.05;;;;;;;15.49;95.94;100371.81;5034897;28;20052;-69
2023/05/22 06:01:44;;;;;;;20.25;17.40;;;;;;;15.53;96.55;100367.97;5022190;28;20056;-69
2023/05/22 06:04:54;;;;;;;18.10;16.40;;;;;;;15.66;96.38;100372.31;5022315;28;20416;-69
2023/05/22 06:07:58;;;;;;;19.10;17.05;;;;;;;15.71;96.33;100370.22;5022354;28;20076;-77
2023/05/22 06:11:02;;;;;;;16.85;15.32;;;;;;;15.85;95.50;100367.38;5030218;28;20417;-69
2023/05/22 06:14:12;;;;;;;17.77;15.98;;;;;;;15.94;95.60;100365.81;5019636;28;20048;-72
2023/05/22 06:17:15;;;;;;;17.40;15.88;;;;;;;16.06;95.05;100367.50;5022622;28;20079;-69
2023/05/22 06:20:21;;;;;;;18.02;16.15;;;;;;;16.23;94.46;100359.09;5022523;28;20040;-68
2023/05/22 06:23:24;;;;;;;17.58;15.65;;;;;;;16.39;94.24;100355.25;5022434;28;20045;-68
2023/05/22 06:26:27;;;;;;;16.48;14.77;;;;;;;16.54;93.20;100361.13;5022587;28;20047;-68
2023/05/22 06:29:31;;;;;;;17.95;14.85;;;;;;;16.65;93.49;100358.47;5022366;28;20079;-68
2023/05/22 06:32:34;;;;;;;17.40;15.43;;;;;;;16.71;93.35;100366.72;5020843;28;20048;-69
2023/05/22 06:35:38;;;;;;;16.30;14.65;;;;;;;16.78;92.84;100367.09;5033477;28;20080;-69
2023/05/22 06:38:42;;;;;;;16.77;15.18;;;;;;;16.86;93.14;100359.41;5022168;28;20566;-69
2023/05/22 06:41:58;;;;;;;16.60;14.95;;;;;;;16.99;92.57;100363.69;5022138;28;20060;-70
2023/05/22 06:45:02;;;;;;;19.23;15.35;;;;;;;17.07;92.95;100359.47;5021914;28;20044;-69
2023/05/22 06:48:13;;;;;;;17.20;15.60;;;;;;;17.12;92.40;100365.19;5019296;28;20076;-69
2023/05/22 06:51:31;;;;;;;16.75;15.15;;;;;;;17.22;91.76;100364.44;5021400;28;20133;-68
2023/05/22 06:54:41;;;;;;;17.88;16.23;;;;;;;17.36;92.61;100362.34;5022024;28;20091;-72
2023/05/22 06:57:46;;;;;;;19.50;17.55;;;;;;;17.53;91.29;100360.91;5021974;28;20048;-71
2023/05/22 07:00:50;;;;;;;21.48;19.33;;;;;;;17.70;90.06;100363.94;5020753;28;20048;-71
2023/05/22 07:04:03;;;;;;;22.58;20.23;;;;;;;17.84;89.43;100367.13;5021223;28;20044;-71
2023/05/22 07:07:17;;;;;;;21.20;19.00;;;;;;;17.96;88.30;100364.41;5020823;28;20103;-71
2023/05/22 07:10:20;;;;;;;20.90;18.88;;;;;;;18.03;87.90;100365.56;5020978;28;20060;-71
2023/05/22 07:13:24;;;;;;;21.48;19.33;;;;;;;18.08;87.98;100371.28;5020793;28;20103;-71
2023/05/22 07:16:28;;;;;;;20.77;18.58;;;;;;;18.19;87.38;100371.22;5020933;28;20056;-71
2023/05/22 07:19:32;;;;;;;20.15;18.08;;;;;;;18.28;87.22;100367.78;5021186;28;20040;-71
2023/05/22 07:22:39;;;;;;;18.98;17.20;;;;;;;18.37;86.96;100363.47;5033560;28;20175;-71
2023/05/22 07:25:43;;;;;;;20.35;18.23;;;;;;;18.45;86.43;100355.69;5021176;28;20092;-71
2023/05/22 07:28:49;;;;;;;22.08;17.80;;;;;;;18.48;86.07;100366.00;5021037;28;20102;-69
2023/05/22 07:31:52;;;;;;;20.20;17.63;;;;;;;18.58;85.91;100366.03;5033259;28;20072;-68
2023/05/22 07:34:57;;;;;;;17.65;15.70;;;;;;;18.66;85.72;100358.22;5020993;28;20037;-68
2023/05/22 07:38:01;;;;;;;18.77;16.55;;;;;;;18.75;85.04;100361.91;5016694;28;20080;-68
2023/05/22 07:41:04;;;;;;;18.25;16.55;;;;;;;18.86;84.15;100359.16;5020954;28;20603;-68
2023/05/22 07:44:09;;;;;;;18.92;16.77;;;;;;;18.94;83.97;100359.28;5020684;28;20072;-68
2023/05/22 07:47:14;;;;;;;17.67;15.88;;;;;;;19.03;83.80;100363.75;5021060;28;20045;-68
2023/05/22 07:50:19;;;;;;;19.10;17.17;;;;;;;19.10;83.56;100361.41;5020860;28;20180;-68
2023/05/22 07:53:22;;;;;;;18.67;16.95;;;;;;;19.17;83.33;100364.31;5020622;28;20040;-68
2023/05/22 07:56:29;;;;;;;18.27;15.48;;;;;;;19.23;83.07;100361.94;5020504;28;20128;-69
2023/05/22 07:59:34;;;;;;;18.67;16.75;;;;;;;19.34;82.71;100365.47;5019516;28;20045;-68
2023/05/22 08:02:37;;;;;;;18.23;15.43;;;;;;;19.49;81.82;100366.66;5032606;28;20060;-67
2023/05/22 08:05:40;;;;;;;18.13;16.08;;;;;;;19.64;81.48;100365.28;5032832;28;20052;-67
2023/05/22 08:08:43;;;;;;;17.27;15.52;;;;;;;19.70;80.68;100370.03;5032287;28;20052;-66
2023/05/22 08:11:47;;;;;;;18.05;16.15;;;;;;;19.70;80.48;100359.41;5032639;28;20127;-67
2023/05/22 08:14:52;;;;;;;17.98;15.73;;;;;;;19.76;80.69;100365.13;5020407;28;20468;-66
2023/05/22 08:17:55;;;;;;;23.40;17.15;;;;;;;19.85;79.70;100359.81;5015252;28;20044;-67
2023/05/22 08:20:59;;;;;;;19.98;16.95;;;;;;;19.87;79.25;100365.78;5031658;28;20098;-67
2023/05/22 08:24:02;;;;;;;18.95;16.95;;;;;;;19.98;79.93;100364.78;5032768;28;20063;-67
2023/05/22 08:27:06;;;;;;;17.25;15.65;;;;;;;20.06;79.68;100362.25;5032444;28;20183;-67
2023/05/22 08:30:10;;;;;;;19.60;17.27;;;;;;;20.13;78.80;100359.84;5032432;28;20585;-68
2023/05/22 08:33:13;;;;;;;17.85;16.17;;;;;;;20.15;79.52;100364.03;5020247;28;20052;-68
2023/05/22 08:36:17;;;;;;;20.13;18.10;;;;;;;20.18;78.98;100358.41;5032505;28;20512;-68
2023/05/22 08:39:22;;;;;;;21.60;18.13;;;;;;;20.16;78.92;100371.00;5032315;28;20052;-68
2023/05/22 08:42:26;;;;;;;18.45;16.83;;;;;;;20.20;78.69;100360.94;5032195;28;20039;-68
2023/05/22 08:45:32;;;;;;;19.52;17.63;;;;;;;20.27;78.56;100363.84;5032153;28;20045;-68
2023/05/22 08:48:36;;;;;;;19.77;17.85;;;;;;;20.33;78.25;100363.25;5032207;28;20039;-65
2023/05/22 08:51:41;;;;;;;18.00;16.40;;;;;;;20.42;77.61;100362.34;5032472;28;20179;-68
2023/05/22 08:54:52;;;;;;;19.65;17.63;;;;;;;20.49;77.62;100352.84;5020317;28;20052;-67
2023/05/22 08:57:56;;;;;;;17.13;15.32;;;;;;;20.53;77.81;100350.75;5027309;28;20397;-67
2023/05/22 09:01:01;;;;;;;18.77;16.77;;;;;;;20.63;77.20;100347.03;5031857;28;20111;-67
2023/05/22 09:04:04;;;;;;;19.75;17.83;;;;;;;20.61;76.87;100342.84;5032254;28;20464;-67
2023/05/22 09:07:08;;;;;;;19.77;17.88;;;;;;;20.78;77.16;100355.34;5028631;28;20056;-67
2023/05/22 09:10:11;;;;;;;19.70;17.70;;;;;;;20.90;76.36;100353.31;5032099;28;20076;-67
2023/05/22 09:13:28;;;;;;;18.95;17.05;;;;;;;20.84;75.89;100344.09;5032266;28;20449;-67
2023/05/22 09:16:33;;;;;;;18.58;16.88;;;;;;;20.85;76.16;100344.94;5034459;28;20057;-68
2023/05/22 09:19:36;;;;;;;23.63;18.10;;;;;;;20.82;75.91;100345.25;5035839;28;20091;-67
2023/05/22 09:22:39;;;;;;;18.60;16.85;;;;;;;20.85;76.27;100337.78;5035880;28;20044;-67
2023/05/22 09:25:43;;;;;;;17.88;16.10;;;;;;;20.90;74.94;100337.38;5035913;28;20111;-67
2023/05/22 09:28:47;;;;;;;17.38;15.38;;;;;;;20.94;73.40;100338.72;5035709;28;20036;-67
2023/05/22 09:31:50;;;;;;;17.60;15.77;;;;;;;21.05;72.50;100341.13;5035842;28;20413;-67
2023/05/22 09:35:01;;;;;;;16.77;15.20;;;;;;;21.04;72.52;100343.97;5023559;28;20080;-67
2023/05/22 09:38:05;;;;;;;16.55;14.80;;;;;;;21.09;71.25;100342.53;5023558;28;20068;-67
2023/05/22 09:41:08;;;;;;;16.20;13.45;;;;;;;21.18;71.72;100342.56;5035538;28;20043;-68
2023/05/22 09:44:14;;;;;;;18.40;14.90;;;;;;;21.18;71.23;100334.59;5035475;28;20064;-66
2023/05/22 09:47:17;;;;;;;17.45;15.82;;;;;;;21.10;71.20;100338.88;5035387;28;20471;-66
2023/05/22 09:50:20;;;;;;;18.02;16.23;;;;;;;21.09;71.32;100336.34;5035216;28;20052;-66
2023/05/22 09:53:29;;;;;;;17.90;16.08;;;;;;;21.17;72.22;100332.94;5035189;28;20460;-66
2023/05/22 09:56:35;;;;;;;16.77;14.77;;;;;;;21.33;72.05;100333.06;5035057;28;20437;-66
2023/05/22 09:59:41;;;;;;;15.05;13.65;;;;;;;21.21;69.44;100332.47;5035122;28;20532;-66
2023/05/22 10:02:47;;;;;;;15.95;14.45;;;;;;;21.25;70.98;100339.16;5034926;28;20068;-68
2023/05/22 10:05:52;;;;;;;14.05;12.70;;;;;;;21.39;71.02;100335.13;5035171;28;20044;-69
2023/05/22 10:09:05;;;;;;;16.15;13.52;;;;;;;21.42;68.83;100336.66;5035130;28;20526;-68
2023/05/22 10:16:24;;;;;;;13.77;12.35;;;;;;;21.49;67.66;100333.22;5035081;28;20039;-68
2023/05/22 10:19:30;;;;;;;18.23;13.25;;;;;;;21.56;67.62;100328.94;5033836;28;20613;-67
2023/05/22 10:22:37;;;;;;;13.57;12.25;;;;;;;21.54;66.72;100330.94;5034763;28;20470;-67
2023/05/22 10:25:40;;;;;;;21.15;13.63;;;;;;;21.60;68.94;100332.13;5034662;28;20041;-67
2023/05/22 10:28:57;;;;;;;13.85;12.40;;;;;;;21.70;68.32;100330.22;5034814;28;20040;-67
2023/05/22 10:32:25;;;;;;;14.00;12.60;;;;;;;21.74;67.95;100323.56;5034666;28;20084;-67
2023/05/22 10:35:56;;;;;;;16.08;14.05;;;;;;;21.80;67.65;100322.13;5034720;28;20052;-67
2023/05/22 10:39:35;;;;;;;14.27;12.88;;;;;;;21.89;68.27;100313.19;5034355;28;20051;-67
2023/05/22 10:42:56;;;;;;;;;;;;;;;;;;;;;
2023/05/22 10:46:06;;;;;;;16.42;14.68;;;;;;;21.87;67.45;100307.19;5032613;28;20156;-67
2023/05/22 10:49:20;;;;;;;16.52;14.00;;;;;;;21.97;68.75;100299.91;5033524;28;20036;-70
2023/05/22 10:52:23;;;;;;;16.25;14.65;;;;;;;22.17;68.69;100289.84;5034356;28;20044;-68
2023/05/22 10:55:26;;;;;;;14.50;13.10;;;;;;;22.38;68.78;100285.94;5032599;28;20045;-68
2023/05/22 10:58:36;;;;;;;15.93;14.43;;;;;;;22.41;66.95;100281.13;5031376;28;20128;-72
2023/05/22 11:01:39;;;;;;;17.30;15.43;;;;;;;22.31;66.51;100284.94;5031659;28;20084;-72
2023/05/22 11:04:54;;;;;;;16.40;14.93;;;;;;;22.45;66.42;100282.44;5017687;28;20052;-72
2023/05/22 11:08:26;;;;;;;16.88;14.90;;;;;;;22.36;65.59;100283.41;5032319;28;20103;-73
2023/05/22 11:11:29;;;;;;;15.50;13.88;;;;;;;22.66;65.93;100283.84;5033830;28;20084;-73
2023/05/22 11:14:35;;;;;;;15.63;14.23;;;;;;;22.77;64.43;100269.34;5033935;28;20048;-73
2023/05/22 11:17:38;;;;;;;16.20;14.60;;;;;;;22.86;64.42;100276.34;5033969;28;20064;-73
2023/05/22 11:20:43;;;;;;;15.15;13.65;;;;;;;23.19;63.96;100277.19;5033978;28;20099;-73
2023/05/22 11:23:46;;;;;;;15.20;13.73;;;;;;;23.17;64.10;100271.22;5033786;28;20244;-73
2023/05/22 11:27:06;;;;;;;17.00;15.25;;;;;;;23.31;64.27;100270.53;5033808;28;20460;-72
2023/05/22 11:30:11;;;;;;;14.32;12.95;;;;;;;23.40;62.51;100268.69;5033648;28;20052;-73
2023/05/22 11:33:15;;;;;;;16.75;14.85;;;;;;;23.34;62.26;100264.03;5033626;28;20040;-74
2023/05/22 11:36:19;;;;;;;18.00;14.82;;;;;;;23.35;63.01;100269.19;5033571;28;20524;-73
2023/05/22 11:39:22;;;;;;;16.70;15.20;;;;;;;23.51;62.26;100256.81;5032905;28;20102;-74
2023/05/22 11:42:25;;;;;;;16.95;15.27;;;;;;;23.57;62.07;100251.63;5021170;28;20096;-73
2023/05/22 11:45:28;;;;;;;19.23;16.25;;;;;;;23.70;61.95;100250.28;5033362;28;20044;-73
2023/05/22 11:48:35;;;;;;;17.73;16.02;;;;;;;23.78;61.72;100237.75;5033260;28;20104;-73
2023/05/22 11:51:39;;;;;;;18.13;15.95;;;;;;;24.14;60.93;100237.25;5033411;28;20088;-73
2023/05/22 11:54:46;;;;;;;19.25;16.45;;;;;;;24.19;60.00;100234.88;5033635;28;20064;-72
2023/05/22 11:57:49;;;;;;;17.95;16.20;;;;;;;24.22;58.05;100233.69;5033156;28;20558;-72
2023/05/22 12:00:57;;;;;;;16.88;15.25;;;;;;;24.25;57.87;100228.00;5033040;28;20057;-73
2023/05/22 12:04:00;;;;;;;17.83;15.93;;;;;;;24.49;58.55;100224.38;5033219;28;20053;-73
2023/05/22 12:07:04;;;;;;;16.50;14.90;;;;;;;24.64;55.55;100222.59;5033097;28;20060;-72
2023/05/22 12:10:08;;;;;;;17.75;15.55;;;;;;;24.67;55.48;100224.91;5033122;28;20129;-72
2023/05/22 12:13:11;;;;;;;17.02;15.40;;;;;;;24.66;56.35;100223.22;5032956;28;20092;-73
2023/05/22 12:16:20;;;;;;;16.35;14.57;;;;;;;24.92;56.92;100216.66;5032823;28;20152;-73
2023/05/22 12:19:24;;;;;;;15.02;13.52;;;;;;;24.94;54.41;100217.31;5032680;28;20068;-73
2023/05/22 12:22:28;;;;;;;14.88;13.30;;;;;;;24.96;53.68;100215.31;5033110;28;20056;-73
2023/05/22 12:25:34;;;;;;;16.30;13.45;;;;;;;25.02;53.36;100212.75;5032826;28;20036;-73
2023/05/22 12:28:38;;;;;;;15.05;13.50;;;;;;;25.15;53.26;100222.03;5032592;28;20091;-73
2023/05/22 12:31:45;;;;;;;17.02;14.93;;;;;;;25.33;53.42;100218.97;5032480;28;20124;-73
2023/05/22 12:34:49;;;;;;;15.00;13.50;;;;;;;25.45;52.03;100215.66;5032581;28;20515;-73
2023/05/22 12:37:52;;;;;;;15.20;13.63;;;;;;;25.25;51.77;100220.72;5032731;28;20509;-73
2023/05/22 12:40:57;;;;;;;15.70;13.45;;;;;;;25.48;51.12;100211.78;5032414;28;20429;-73
2023/05/22 12:44:02;;;;;;;16.35;14.75;;;;;;;25.65;51.25;100204.38;5032423;28;20052;-73
2023/05/22 12:47:06;;;;;;;16.98;14.35;;;;;;;25.72;51.49;100221.38;5009387;28;20163;-73
2023/05/22 12:50:10;;;;;;;15.77;14.18;;;;;;;25.86;51.12;100206.34;5034195;28;20128;-73
2023/05/22 12:53:13;;;;;;;17.05;15.35;;;;;;;26.03;50.50;100207.78;5036644;28;20095;-73
2023/05/22 12:56:17;;;;;;;14.88;13.38;;;;;;;26.11;49.34;100202.31;5036885;28;20179;-73
2023/05/22 12:59:20;;;;;;;15.45;13.95;;;;;;;26.11;50.03;100196.94;5036012;28;20103;-73
2023/05/22 13:02:25;;;;;;;14.07;12.68;;;;;;;26.24;50.59;100198.13;5022565;28;20075;-73
2023/05/22 13:05:28;;;;;;;14.57;13.07;;;;;;;25.95;50.34;100206.03;5022377;28;20480;-73
2023/05/22 13:08:35;;;;;;;16.00;14.52;;;;;;;25.76;50.59;100201.25;5036276;28;20460;-72
2023/05/22 13:11:40;;;;;;;17.15;15.55;;;;;;;25.95;49.95;100202.53;5024396;28;20048;-72
2023/05/22 13:14:43;;;;;;;16.17;14.52;;;;;;;26.30;49.69;100194.69;5036134;28;20045;-73
2023/05/22 13:17:47;;;;;;;16.20;14.50;;;;;;;26.57;50.34;100199.28;5036055;28;20044;-73
2023/05/22 13:20:55;;;;;;;15.98;14.40;;;;;;;26.67;50.46;100207.88;5036014;28;20068;-72
2023/05/22 13:23:58;;;;;;;16.63;15.00;;;;;;;26.59;49.59;100207.16;5036249;28;20044;-73
2023/05/22 13:27:01;;;;;;;17.63;14.57;;;;;;;26.61;48.97;100210.44;5036424;28;20053;-74
2023/05/22 13:30:05;;;;;;;17.95;16.25;;;;;;;25.87;50.35;100221.38;5032080;28;20040;-73
2023/05/22 13:33:09;;;;;;;18.00;16.05;;;;;;;26.25;50.08;100219.34;5031936;28;20103;-73
2023/05/22 13:36:15;;;;;;;16.90;15.18;;;;;;;26.45;49.27;100227.59;5035935;28;20040;-73
2023/05/22 13:39:18;;;;;;;17.35;15.55;;;;;;;27.01;48.76;100211.63;5035042;28;20099;-75
2023/05/22 13:42:21;;;;;;;16.80;15.15;;;;;;;27.21;49.42;100216.34;5035900;28;20048;-74
2023/05/22 13:45:26;;;;;;;17.55;15.68;;;;;;;27.79;47.61;100216.88;5035639;28;20104;-75
2023/05/22 13:48:29;;;;;;;16.50;14.88;;;;;;;28.46;47.16;100226.00;5035659;28;20041;-75
2023/05/22 13:51:32;;;;;;;17.80;15.98;;;;;;;28.47;46.20;100212.38;5035027;28;20072;-76
2023/05/22 13:54:36;;;;;;;16.92;15.25;;;;;;;28.63;46.15;100208.47;5035492;28;20405;-77
2023/05/22 13:57:39;;;;;;;22.65;15.50;;;;;;;28.79;45.88;100207.22;5035428;28;20061;-74
2023/05/22 14:00:43;;;;;;;19.92;18.13;;;;;;;28.28;45.73;100210.44;5034341;28;20088;-75
2023/05/22 14:04:11;;;;;;;18.45;16.60;;;;;;;28.66;45.83;100188.41;5035185;28;20056;-79
2023/05/22 14:07:14;;;;;;;18.17;16.35;;;;;;;29.29;45.53;100191.47;5035476;28;20043;-74
2023/05/22 14:10:19;;;;;;;21.15;19.00;;;;;;;28.39;45.42;100191.00;5035338;28;20099;-75
2023/05/22 14:13:25;;;;;;;19.95;18.15;;;;;;;29.65;43.06;100195.53;5035289;28;20043;-76
2023/05/22 14:16:28;;;;;;;18.33;16.67;;;;;;;31.86;39.06;100188.16;5022936;28;20063;-74